createdAt,value
2022-11-05T00:01:32.220Z,75.60
2022-11-05T00:06:52.936Z,75.50
2022-11-05T00:12:14.961Z,75.60
2022-11-05T00:17:18.185Z,75.70
2022-11-05T00:22:38.513Z,75.60
2022-11-05T00:27:43.133Z,75.90
2022-11-05T00:32:47.224Z,75.90
2022-11-05T00:37:50.837Z,75.80
2022-11-05T00:43:13.106Z,75.80
2022-11-05T00:48:33.906Z,75.80
2022-11-05T00:53:37.362Z,76.10
2022-11-05T00:58:41.908Z,76.00
2022-11-05T01:03:50.373Z,75.90
2022-11-05T01:08:57.186Z,75.70
2022-11-05T01:14:01.966Z,76.00
2022-11-05T01:19:05.796Z,76.10
2022-11-05T01:24:10.647Z,76.00
2022-11-05T01:29:15.400Z,75.90
2022-11-05T01:34:18.675Z,76.00
2022-11-05T01:39:21.901Z,76.10
2022-11-05T01:44:43.861Z,76.00
2022-11-05T01:49:48.485Z,76.00
2022-11-05T01:54:52.112Z,76.20
2022-11-05T01:59:57.079Z,76.30
2022-11-05T02:05:02.947Z,76.00
2022-11-05T02:10:07.286Z,76.10
2022-11-05T02:15:11.826Z,76.00
2022-11-05T02:20:24.345Z,76.00
2022-11-05T02:25:36.141Z,76.00
2022-11-05T02:30:43.633Z,76.20
2022-11-05T02:36:03.627Z,76.10
2022-11-05T02:41:09.816Z,75.90
2022-11-05T02:46:21.142Z,76.00
2022-11-05T02:51:27.872Z,76.10
2022-11-05T02:56:33.447Z,76.10
2022-11-05T03:01:39.052Z,76.00
2022-11-05T03:06:57.028Z,76.00
2022-11-05T03:12:05.415Z,75.80
2022-11-05T03:17:11.848Z,76.00
2022-11-05T03:22:16.532Z,76.10
2022-11-05T03:27:22.649Z,76.20
2022-11-05T03:32:28.568Z,76.00
2022-11-05T03:37:33.816Z,75.90
2022-11-05T03:42:38.395Z,76.10
2022-11-05T03:47:44.859Z,76.10
2022-11-05T03:52:50.204Z,76.00
2022-11-05T03:57:55.387Z,76.00
2022-11-05T04:02:59.974Z,76.10
2022-11-05T04:08:20.787Z,76.10
2022-11-05T04:13:27.083Z,76.10
2022-11-05T04:18:31.690Z,75.90
2022-11-05T04:23:52.511Z,76.10
2022-11-05T04:29:13.405Z,75.90
2022-11-05T04:34:19.062Z,76.00
2022-11-05T04:39:22.556Z,76.00
2022-11-05T04:44:25.802Z,75.90
2022-11-05T04:49:30.463Z,75.90
2022-11-05T04:54:33.727Z,76.00
2022-11-05T04:59:36.938Z,76.00
2022-11-05T05:04:41.470Z,75.90
2022-11-05T05:09:44.647Z,75.40
2022-11-05T05:14:48.584Z,75.30
2022-11-05T05:20:10.639Z,75.30
2022-11-05T05:25:13.815Z,75.20
2022-11-05T05:30:16.999Z,75.20
2022-11-05T05:35:21.600Z,75.20
2022-11-05T05:40:25.130Z,75.10
2022-11-05T05:45:28.334Z,75.30
2022-11-05T05:50:32.957Z,75.10
2022-11-05T05:55:36.204Z,75.20
2022-11-05T06:00:39.445Z,75.00
2022-11-05T06:05:44.060Z,75.10
2022-11-05T06:10:51.556Z,75.00
2022-11-05T06:15:55.178Z,74.80
2022-11-05T06:21:03.623Z,75.00
2022-11-05T06:26:08.145Z,75.00
2022-11-05T06:31:11.396Z,75.00
2022-11-05T06:36:17.178Z,75.20
2022-11-05T06:41:20.360Z,75.30
2022-11-05T06:46:23.590Z,75.20
2022-11-05T06:51:28.515Z,75.20
2022-11-05T06:56:31.632Z,75.00
2022-11-05T07:01:35.014Z,74.80
2022-11-05T07:06:39.754Z,74.80
2022-11-05T07:11:42.856Z,74.80
2022-11-05T07:16:46.040Z,75.00
2022-11-05T07:21:51.094Z,74.90
2022-11-05T07:26:54.307Z,74.90
2022-11-05T07:31:57.538Z,73.00
2022-11-05T07:37:02.163Z,70.60
2022-11-05T07:42:05.462Z,70.90
2022-11-05T07:47:09.019Z,70.40
2022-11-05T07:52:13.601Z,68.50
2022-11-05T07:57:16.766Z,69.00
2022-11-05T08:02:20.151Z,68.20
2022-11-05T08:07:24.892Z,67.90
2022-11-05T08:12:28.097Z,66.60
2022-11-05T08:17:31.429Z,67.50
2022-11-05T08:22:36.011Z,68.40
2022-11-05T08:27:39.336Z,68.10
2022-11-05T08:32:42.550Z,67.90
2022-11-05T08:37:47.113Z,68.20
2022-11-05T08:42:50.362Z,68.20
2022-11-05T08:47:59.368Z,67.50
2022-11-05T08:53:04.131Z,67.40
2022-11-05T08:58:08.645Z,68.00
2022-11-05T09:03:12.197Z,68.20
2022-11-05T09:08:17.881Z,67.90
2022-11-05T09:13:21.466Z,67.70
2022-11-05T09:18:25.262Z,66.90
2022-11-05T09:23:29.858Z,66.90
2022-11-05T09:28:33.471Z,67.50
2022-11-05T09:33:37.203Z,66.70
2022-11-05T09:38:41.883Z,67.50
2022-11-05T09:43:47.072Z,67.50
2022-11-05T09:48:53.428Z,67.70
2022-11-05T09:53:59.628Z,68.50
2022-11-05T09:59:06.176Z,67.80
2022-11-05T10:04:10.841Z,68.00
2022-11-05T10:09:20.438Z,68.00
2022-11-05T10:14:25.761Z,67.20
2022-11-05T10:19:32.368Z,67.10
2022-11-05T10:24:36.972Z,67.20
2022-11-05T10:29:40.278Z,66.90
2022-11-05T10:34:43.884Z,67.00
2022-11-05T10:39:48.495Z,66.50
2022-11-05T10:44:54.949Z,66.60
2022-11-05T10:49:59.724Z,66.50
2022-11-05T10:55:07.711Z,65.50
2022-11-05T11:00:24.959Z,65.10
2022-11-05T11:05:30.050Z,65.10
2022-11-05T11:10:37.545Z,65.50
2022-11-05T11:15:40.736Z,65.40
2022-11-05T11:20:46.056Z,65.40
2022-11-05T11:25:53.080Z,65.20
2022-11-05T11:31:01.823Z,65.40
2022-11-05T11:36:05.559Z,65.50
2022-11-05T11:41:20.687Z,65.50
2022-11-05T11:46:23.947Z,65.50
2022-11-05T11:51:31.788Z,65.60
2022-11-05T11:56:45.373Z,65.60
2022-11-05T12:01:55.307Z,65.40
2022-11-05T12:07:06.472Z,65.90
2022-11-05T12:12:13.390Z,65.90
2022-11-05T12:17:23.318Z,65.70
2022-11-05T12:22:30.911Z,65.70
2022-11-05T12:27:48.170Z,65.90
2022-11-05T12:33:15.767Z,65.80
2022-11-05T12:38:25.588Z,65.90
2022-11-05T12:43:35.577Z,66.20
2022-11-05T12:48:52.478Z,65.80
2022-11-05T12:54:02.676Z,65.80
2022-11-05T12:59:12.601Z,66.00
2022-11-05T13:04:18.229Z,65.90
2022-11-05T13:09:23.841Z,66.00
2022-11-05T13:14:30.373Z,65.90
2022-11-05T13:19:37.184Z,66.10
2022-11-05T13:24:41.788Z,66.00
2022-11-05T13:29:50.024Z,65.90
2022-11-05T13:34:53.242Z,66.20
2022-11-05T13:39:59.025Z,66.20
2022-11-05T13:45:16.081Z,66.40
2022-11-05T13:50:26.525Z,66.50
2022-11-05T13:55:50.340Z,66.50
2022-11-05T14:01:03.549Z,66.50
2022-11-05T14:06:07.944Z,66.60
2022-11-05T14:11:20.079Z,66.70
2022-11-05T14:16:25.471Z,66.80
2022-11-05T14:21:33.500Z,67.00
2022-11-05T14:26:36.739Z,66.90
2022-11-05T14:32:11.546Z,67.00
2022-11-05T14:37:37.216Z,66.90
2022-11-05T14:42:40.552Z,66.90
2022-11-05T14:47:51.712Z,67.20
2022-11-05T14:52:55.849Z,67.30
2022-11-05T14:58:03.855Z,67.00
2022-11-05T15:03:32.351Z,67.20
2022-11-05T15:08:38.971Z,67.40
2022-11-05T15:13:46.068Z,67.50
2022-11-05T15:18:50.918Z,67.70
2022-11-05T15:23:56.599Z,67.70
2022-11-05T15:29:00.783Z,68.10
2022-11-05T15:34:17.664Z,68.20
2022-11-05T15:39:29.278Z,68.40
2022-11-05T15:44:34.958Z,68.70
2022-11-05T15:49:39.705Z,68.80
2022-11-05T15:54:43.454Z,69.00
2022-11-05T15:59:47.568Z,69.20
2022-11-05T16:04:52.245Z,69.90
2022-11-05T16:09:56.683Z,70.40
2022-11-05T16:15:01.477Z,70.60
2022-11-05T16:20:19.313Z,71.50
2022-11-05T16:25:28.797Z,72.30
2022-11-05T16:30:32.024Z,72.50
2022-11-05T16:35:39.784Z,73.10
2022-11-05T16:40:43.159Z,73.80
2022-11-05T16:45:46.413Z,74.60
2022-11-05T16:50:51.225Z,75.10
2022-11-05T16:55:54.433Z,75.80
2022-11-05T17:00:59.330Z,77.80
2022-11-05T17:06:04.030Z,79.30
2022-11-05T17:11:07.743Z,80.90
2022-11-05T17:16:12.282Z,80.60
2022-11-05T17:21:16.921Z,80.50
2022-11-05T17:26:20.233Z,79.80
2022-11-05T17:31:23.439Z,79.80
2022-11-05T17:36:28.064Z,79.30
2022-11-05T17:41:31.233Z,79.40
2022-11-05T17:46:34.480Z,79.30
2022-11-05T17:51:39.165Z,79.10
2022-11-05T17:56:44.903Z,78.90
2022-11-05T18:01:48.337Z,78.60
2022-11-05T18:06:53.009Z,78.50
2022-11-05T18:11:56.241Z,79.10
